createdAt,value
2022-10-28T00:01:06.910Z,100.00
2022-10-28T00:03:33.537Z,100.00
2022-10-28T00:06:05.553Z,100.00
2022-10-28T00:08:33.167Z,100.00
2022-10-28T00:11:08.065Z,100.00
2022-10-28T00:13:35.350Z,100.00
2022-10-28T00:16:08.047Z,100.00
2022-10-28T00:18:34.844Z,100.00
2022-10-28T00:21:09.599Z,100.00
2022-10-28T00:23:36.388Z,100.00
2022-10-28T00:26:12.135Z,100.00
2022-10-28T00:28:46.673Z,100.00
2022-10-28T00:31:16.597Z,100.00
2022-10-28T00:33:43.241Z,100.00
2022-10-28T00:36:11.695Z,100.00
2022-10-28T00:38:38.617Z,100.00
2022-10-28T00:41:05.854Z,100.00
2022-10-28T00:43:35.266Z,100.00
2022-10-28T00:46:03.280Z,100.00
2022-10-28T00:48:30.182Z,100.00
2022-10-28T00:50:57.021Z,100.00
2022-10-28T00:53:28.357Z,100.00
2022-10-28T00:55:56.793Z,100.00
2022-10-28T00:58:26.036Z,100.00
2022-10-28T01:00:53.055Z,100.00
2022-10-28T01:03:19.531Z,100.00
2022-10-28T01:05:48.493Z,100.00
2022-10-28T01:08:15.974Z,100.00
2022-10-28T01:10:56.482Z,100.00
2022-10-28T01:13:34.843Z,100.00
2022-10-28T01:16:17.102Z,100.00
2022-10-28T01:19:05.098Z,100.00
2022-10-28T01:21:40.384Z,100.00
2022-10-28T01:24:17.304Z,100.00
2022-10-28T01:27:14.625Z,100.00
2022-10-28T01:29:48.630Z,100.00
2022-10-28T01:32:56.900Z,100.00
2022-10-28T01:38:11.327Z,100.00
2022-10-28T01:41:08.219Z,100.00
2022-10-28T01:43:46.553Z,100.00
2022-10-28T01:46:24.972Z,100.00
2022-10-28T01:48:57.268Z,100.00
2022-10-28T01:51:43.906Z,100.00
2022-10-28T01:54:13.587Z,100.00
2022-10-28T01:56:42.811Z,100.00
2022-10-28T01:59:17.165Z,100.00
2022-10-28T02:01:43.808Z,100.00
2022-10-28T02:04:10.446Z,100.00
2022-10-28T02:06:38.798Z,100.00
2022-10-28T02:09:19.497Z,100.00
2022-10-28T02:12:18.730Z,100.00
2022-10-28T02:15:00.429Z,100.00
2022-10-28T02:17:43.625Z,100.00
2022-10-28T02:20:26.238Z,100.00
2022-10-28T02:22:59.360Z,100.00
2022-10-28T02:25:34.475Z,100.00
2022-10-28T02:28:14.285Z,100.00
2022-10-28T02:30:40.741Z,100.00
2022-10-28T02:33:12.329Z,100.00
2022-10-28T02:35:52.213Z,100.00
2022-10-28T02:38:25.791Z,100.00
2022-10-28T02:40:56.628Z,100.00
2022-10-28T02:43:25.428Z,100.00
2022-10-28T02:45:56.994Z,100.00
2022-10-28T02:48:41.791Z,100.00
2022-10-28T02:51:21.836Z,100.00
2022-10-28T02:54:04.318Z,100.00
2022-10-28T02:56:37.726Z,100.00
2022-10-28T02:59:08.262Z,100.00
2022-10-28T03:01:34.821Z,100.00
2022-10-28T03:04:01.376Z,100.00
2022-10-28T03:06:27.817Z,100.00
2022-10-28T03:08:54.357Z,100.00
2022-10-28T03:11:20.971Z,100.00
2022-10-28T03:13:47.694Z,100.00
2022-10-28T03:16:14.179Z,100.00
2022-10-28T03:18:40.682Z,100.00
2022-10-28T03:21:07.245Z,100.00
2022-10-28T03:23:33.713Z,100.00
2022-10-28T03:26:00.219Z,100.00
2022-10-28T03:28:26.763Z,100.00
2022-10-28T03:30:53.236Z,100.00
2022-10-28T03:33:19.675Z,100.00
2022-10-28T03:35:46.123Z,100.00
2022-10-28T03:38:12.600Z,100.00
2022-10-28T03:40:39.072Z,100.00
2022-10-28T03:43:05.711Z,100.00
2022-10-28T03:45:32.195Z,100.00
2022-10-28T03:47:58.658Z,100.00
2022-10-28T03:50:25.378Z,100.00
2022-10-28T03:52:51.878Z,100.00
2022-10-28T03:55:18.344Z,100.00
2022-10-28T03:57:44.862Z,100.00
2022-10-28T04:00:11.883Z,100.00
2022-10-28T04:02:38.343Z,100.00
2022-10-28T04:05:05.226Z,100.00
2022-10-28T04:07:31.859Z,100.00
2022-10-28T04:09:58.360Z,100.00
2022-10-28T04:12:24.906Z,100.00
2022-10-28T04:14:51.424Z,100.00
2022-10-28T04:17:17.871Z,100.00
2022-10-28T04:19:44.337Z,100.00
2022-10-28T04:22:10.852Z,100.00
2022-10-28T04:24:37.351Z,100.00
2022-10-28T04:27:03.885Z,100.00
2022-10-28T04:29:31.441Z,100.00
2022-10-28T04:31:58.136Z,100.00
2022-10-28T04:34:24.738Z,100.00
2022-10-28T04:36:51.329Z,100.00
2022-10-28T04:39:17.890Z,100.00
2022-10-28T04:41:44.450Z,100.00
2022-10-28T04:44:10.978Z,100.00
2022-10-28T04:46:37.463Z,100.00
2022-10-28T04:49:04.096Z,100.00
2022-10-28T04:51:30.621Z,100.00
2022-10-28T04:53:57.080Z,100.00
2022-10-28T04:56:23.570Z,100.00
2022-10-28T04:58:50.026Z,100.00
2022-10-28T05:01:16.626Z,100.00
2022-10-28T05:03:43.210Z,100.00
2022-10-28T05:06:09.750Z,100.00
2022-10-28T05:08:36.343Z,100.00
2022-10-28T05:11:03.038Z,100.00
2022-10-28T05:13:29.493Z,100.00
2022-10-28T05:15:56.016Z,100.00
2022-10-28T05:18:22.494Z,100.00
2022-10-28T05:20:52.816Z,100.00
2022-10-28T05:23:19.261Z,100.00
2022-10-28T05:25:45.707Z,100.00
2022-10-28T05:28:12.174Z,100.00
2022-10-28T05:30:38.810Z,100.00
2022-10-28T05:33:05.746Z,100.00
2022-10-28T05:35:32.751Z,100.00
2022-10-28T05:37:59.600Z,100.00
2022-10-28T05:40:26.059Z,100.00
2022-10-28T05:42:55.155Z,100.00
2022-10-28T05:45:22.002Z,100.00
2022-10-28T05:47:49.026Z,100.00
2022-10-28T05:50:18.548Z,100.00
2022-10-28T05:52:46.934Z,100.00
2022-10-28T05:55:13.656Z,100.00
2022-10-28T05:57:41.756Z,100.00
2022-10-28T06:00:11.998Z,100.00
2022-10-28T06:02:38.532Z,100.00
2022-10-28T06:05:05.375Z,100.00
2022-10-28T06:07:31.952Z,100.00
2022-10-28T06:09:58.460Z,100.00
2022-10-28T06:12:23.458Z,100.00
2022-10-28T06:14:50.081Z,100.00
2022-10-28T06:17:16.597Z,100.00
2022-10-28T06:19:43.915Z,100.00
2022-10-28T06:22:11.480Z,100.00
2022-10-28T06:24:38.599Z,100.00
2022-10-28T06:27:05.735Z,100.00
2022-10-28T06:29:33.192Z,100.00
2022-10-28T06:31:59.859Z,100.00
2022-10-28T06:34:26.411Z,100.00
2022-10-28T06:36:53.084Z,100.00
2022-10-28T06:39:19.649Z,100.00
2022-10-28T06:41:46.214Z,100.00
2022-10-28T06:44:12.654Z,100.00
2022-10-28T06:46:40.668Z,100.00
2022-10-28T06:49:09.093Z,100.00
2022-10-28T06:51:35.590Z,100.00
2022-10-28T06:54:02.274Z,100.00
2022-10-28T06:56:28.787Z,100.00
2022-10-28T06:58:55.590Z,100.00
2022-10-28T07:01:22.703Z,100.00
2022-10-28T07:03:49.613Z,100.00
2022-10-28T07:06:17.108Z,100.00
2022-10-28T07:08:43.630Z,100.00
2022-10-28T07:11:10.238Z,100.00
2022-10-28T07:13:36.693Z,100.00
2022-10-28T07:16:05.259Z,100.00
2022-10-28T07:18:32.051Z,100.00
2022-10-28T07:21:00.056Z,100.00
2022-10-28T07:23:28.816Z,100.00
2022-10-28T07:25:56.344Z,100.00
2022-10-28T07:28:24.427Z,100.00
2022-10-28T07:30:51.023Z,100.00
2022-10-28T07:33:17.919Z,100.00
2022-10-28T07:35:44.441Z,100.00
2022-10-28T07:38:11.338Z,100.00
2022-10-28T07:40:38.302Z,100.00
2022-10-28T07:43:04.753Z,100.00
2022-10-28T07:45:31.256Z,100.00
2022-10-28T07:47:57.778Z,100.00
2022-10-28T07:50:24.325Z,100.00
2022-10-28T07:52:50.918Z,100.00
2022-10-28T07:55:17.700Z,100.00
2022-10-28T07:57:44.208Z,100.00
2022-10-28T08:00:11.041Z,100.00
2022-10-28T08:02:38.645Z,100.00
2022-10-28T08:05:05.936Z,100.00
2022-10-28T08:07:34.864Z,100.00
2022-10-28T08:10:04.763Z,100.00
2022-10-28T08:12:31.373Z,100.00
2022-10-28T08:14:57.932Z,100.00
2022-10-28T08:17:24.850Z,100.00
2022-10-28T08:19:51.336Z,100.00
2022-10-28T08:22:18.057Z,100.00
2022-10-28T08:24:44.601Z,100.00
2022-10-28T08:27:11.072Z,100.00
2022-10-28T08:29:37.522Z,100.00
2022-10-28T08:32:04.013Z,100.00
2022-10-28T08:34:31.364Z,100.00
2022-10-28T08:36:58.143Z,100.00
2022-10-28T08:39:24.662Z,100.00
2022-10-28T08:42:32.855Z,100.00
2022-10-28T08:45:17.903Z,100.00
2022-10-28T08:50:40.950Z,100.00
2022-10-28T08:53:16.422Z,100.00
2022-10-28T08:55:46.954Z,100.00
2022-10-28T08:58:21.907Z,100.00
2022-10-28T09:00:54.125Z,100.00
2022-10-28T09:03:22.756Z,100.00
2022-10-28T09:05:54.082Z,100.00
2022-10-28T09:08:26.005Z,100.00
2022-10-28T09:10:58.549Z,100.00
2022-10-28T09:13:46.373Z,100.00
2022-10-28T09:16:45.842Z,100.00
2022-10-28T09:19:35.940Z,100.00
2022-10-28T09:22:20.723Z,100.00
2022-10-28T09:25:01.003Z,100.00
2022-10-28T09:27:39.385Z,100.00
2022-10-28T09:30:06.287Z,100.00
2022-10-28T09:32:41.280Z,100.00
2022-10-28T09:35:18.020Z,100.00
2022-10-28T09:38:04.840Z,98.95
2022-10-28T09:40:35.100Z,96.29
2022-10-28T09:43:16.526Z,94.88
2022-10-28T09:45:48.168Z,93.56
2022-10-28T09:48:26.831Z,92.10
2022-10-28T09:50:55.838Z,91.06
2022-10-28T09:53:42.829Z,90.26
2022-10-28T09:56:09.774Z,89.07
2022-10-28T09:58:42.264Z,88.17
2022-10-28T10:01:08.831Z,87.40
2022-10-28T10:03:35.612Z,88.43
2022-10-28T10:06:16.974Z,87.51
2022-10-28T10:08:45.199Z,89.03
2022-10-28T10:11:39.393Z,87.93
2022-10-28T10:14:13.572Z,87.04
2022-10-28T10:16:52.808Z,86.79
2022-10-28T10:19:19.324Z,86.48
2022-10-28T10:21:48.343Z,85.76
2022-10-28T10:24:35.434Z,83.25
2022-10-28T10:27:10.781Z,84.83
2022-10-28T10:29:44.125Z,84.39
2022-10-28T10:32:18.316Z,85.07
2022-10-28T10:34:49.896Z,86.53
2022-10-28T10:37:21.201Z,86.61
2022-10-28T10:40:07.293Z,85.40
2022-10-28T10:42:39.190Z,86.46
2022-10-28T10:45:18.863Z,87.22
2022-10-28T10:47:45.373Z,87.20
2022-10-28T10:50:22.556Z,87.23
2022-10-28T10:52:52.453Z,86.93
2022-10-28T10:55:38.737Z,87.95
2022-10-28T10:58:14.694Z,87.81
2022-10-28T11:00:47.740Z,87.54
2022-10-28T11:03:48.349Z,87.53
2022-10-28T11:06:26.602Z,87.65
2022-10-28T11:09:05.363Z,86.22
2022-10-28T11:11:36.497Z,85.45
2022-10-28T11:14:08.934Z,85.90
2022-10-28T11:16:53.912Z,86.90
2022-10-28T11:19:34.656Z,86.54
2022-10-28T11:22:09.892Z,87.57
2022-10-28T11:24:57.850Z,86.43
2022-10-28T11:27:39.810Z,85.23
2022-10-28T11:30:13.822Z,84.01
2022-10-28T11:33:28.830Z,82.06
2022-10-28T11:36:16.308Z,80.68
2022-10-28T11:38:58.134Z,79.05
2022-10-28T11:41:30.460Z,79.67
2022-10-28T11:44:05.197Z,80.65
2022-10-28T11:46:36.833Z,80.18
2022-10-28T11:49:44.559Z,78.71
2022-10-28T11:52:49.910Z,77.52
2022-10-28T11:55:39.569Z,76.83
2022-10-28T11:58:43.165Z,76.36
2022-10-28T12:01:35.857Z,75.34
2022-10-28T12:04:48.905Z,75.46
2022-10-28T12:07:37.001Z,76.20
2022-10-28T12:10:22.413Z,75.94
2022-10-28T12:13:06.837Z,76.04
2022-10-28T12:15:43.069Z,75.40
2022-10-28T12:18:09.697Z,76.88
2022-10-28T12:21:07.098Z,75.87
2022-10-28T12:23:37.975Z,76.01
2022-10-28T12:26:08.532Z,76.97
2022-10-28T12:28:43.905Z,77.25
2022-10-28T12:31:26.525Z,77.18
2022-10-28T12:34:00.973Z,77.17
2022-10-28T12:36:41.577Z,77.39
2022-10-28T12:39:26.838Z,77.06
2022-10-28T12:42:00.672Z,77.60
2022-10-28T12:44:28.329Z,78.96
2022-10-28T12:47:05.187Z,79.33
2022-10-28T12:49:56.307Z,80.15
2022-10-28T12:52:43.839Z,79.45
2022-10-28T12:55:13.064Z,79.78
2022-10-28T12:57:45.818Z,79.55
2022-10-28T13:00:23.544Z,79.47
2022-10-28T13:03:01.500Z,79.04
2022-10-28T13:05:37.572Z,77.73
2022-10-28T13:08:07.126Z,79.40
2022-10-28T13:11:21.691Z,79.20
2022-10-28T13:13:48.133Z,79.74
2022-10-28T13:16:35.955Z,80.91
2022-10-28T13:19:23.471Z,81.94
2022-10-28T13:21:57.412Z,81.82
2022-10-28T13:24:32.710Z,82.94
2022-10-28T13:27:03.596Z,83.25
2022-10-28T13:29:33.415Z,83.91
2022-10-28T13:32:00.418Z,84.16
2022-10-28T13:34:37.060Z,85.65
2022-10-28T13:37:06.072Z,86.80
2022-10-28T13:39:46.450Z,87.26
2022-10-28T13:42:12.824Z,87.53
2022-10-28T13:44:49.957Z,87.34
2022-10-28T13:47:16.423Z,88.00
2022-10-28T13:50:04.539Z,88.38
2022-10-28T13:52:31.846Z,90.32
2022-10-28T13:54:58.949Z,90.34
2022-10-28T13:57:35.702Z,90.76
2022-10-28T14:00:07.054Z,89.74
2022-10-28T14:02:44.098Z,90.32
2022-10-28T14:05:13.793Z,90.64
2022-10-28T14:08:01.316Z,91.06
2022-10-28T14:10:33.061Z,91.40
2022-10-28T14:13:03.432Z,90.33
2022-10-28T14:15:38.857Z,90.13
2022-10-28T14:21:06.853Z,90.73
2022-10-28T14:23:33.259Z,90.83
2022-10-28T14:26:04.606Z,91.20
2022-10-28T14:28:31.207Z,90.93
2022-10-28T14:31:12.691Z,91.85
2022-10-28T14:34:04.708Z,91.17
2022-10-28T14:36:49.806Z,91.45
2022-10-28T14:39:45.290Z,91.77
2022-10-28T14:42:30.759Z,91.72
2022-10-28T14:45:30.662Z,93.03
2022-10-28T14:48:24.812Z,93.73
2022-10-28T14:50:52.707Z,93.68
2022-10-28T14:53:32.056Z,94.12
2022-10-28T14:56:09.582Z,94.97
2022-10-28T14:58:44.256Z,95.12
2022-10-28T15:01:17.168Z,95.99
2022-10-28T15:03:48.180Z,96.71
2022-10-28T15:06:39.217Z,97.18
2022-10-28T15:09:30.365Z,98.01
2022-10-28T15:12:07.592Z,98.34
2022-10-28T15:14:38.958Z,98.85
2022-10-28T15:17:17.774Z,98.01
2022-10-28T15:19:48.373Z,98.04
2022-10-28T15:22:24.224Z,99.10
2022-10-28T15:25:14.711Z,100.00
2022-10-28T15:27:43.228Z,100.00
2022-10-28T15:30:15.912Z,100.00
2022-10-28T15:32:42.401Z,100.00
2022-10-28T15:35:26.991Z,100.00
2022-10-28T15:37:55.022Z,100.00
2022-10-28T15:40:33.392Z,100.00
2022-10-28T15:43:07.382Z,100.00
2022-10-28T15:45:41.344Z,100.00
2022-10-28T15:48:14.605Z,100.00
2022-10-28T15:50:41.626Z,100.00
2022-10-28T15:53:11.037Z,100.00
2022-10-28T15:58:33.467Z,100.00
2022-10-28T16:01:00.053Z,100.00
2022-10-28T16:03:47.079Z,100.00
2022-10-28T16:06:31.697Z,100.00
2022-10-28T16:09:02.665Z,100.00
2022-10-28T16:11:30.921Z,100.00
2022-10-28T16:13:58.328Z,100.00
2022-10-28T16:16:28.122Z,100.00
2022-10-28T16:19:29.986Z,100.00
2022-10-28T16:21:56.513Z,100.00
2022-10-28T16:24:23.066Z,100.00
2022-10-28T16:26:49.559Z,100.00
2022-10-28T16:29:15.967Z,100.00
2022-10-28T16:31:42.592Z,100.00
2022-10-28T16:34:14.646Z,100.00
2022-10-28T16:36:41.132Z,100.00
2022-10-28T16:39:16.328Z,100.00
2022-10-28T16:41:42.842Z,100.00
2022-10-28T16:44:16.857Z,100.00
2022-10-28T16:46:43.447Z,100.00
2022-10-28T16:49:09.903Z,100.00
2022-10-28T16:51:36.489Z,100.00
2022-10-28T16:54:03.043Z,100.00
2022-10-28T16:56:29.487Z,100.00
2022-10-28T16:58:55.908Z,100.00
2022-10-28T17:01:22.812Z,100.00
2022-10-28T17:03:49.388Z,100.00
2022-10-28T17:06:15.912Z,100.00
2022-10-28T17:09:02.539Z,100.00
2022-10-28T17:11:28.958Z,100.00
2022-10-28T17:13:55.412Z,100.00
2022-10-28T17:16:22.027Z,100.00
2022-10-28T17:18:51.279Z,100.00
2022-10-28T17:21:18.722Z,100.00
2022-10-28T17:23:45.231Z,100.00
2022-10-28T17:26:11.740Z,100.00
2022-10-28T17:28:38.272Z,100.00
2022-10-28T17:31:06.522Z,100.00
2022-10-28T17:33:33.430Z,100.00
2022-10-28T17:36:05.895Z,100.00
2022-10-28T17:38:32.523Z,100.00
2022-10-28T17:40:59.087Z,100.00
2022-10-28T17:43:25.633Z,100.00
2022-10-28T17:45:52.329Z,100.00
2022-10-28T17:48:18.801Z,100.00
2022-10-28T17:50:53.824Z,100.00
2022-10-28T17:53:21.866Z,100.00
2022-10-28T17:55:58.369Z,100.00
2022-10-28T17:58:25.211Z,100.00
2022-10-28T18:01:01.997Z,100.00
2022-10-28T18:03:32.734Z,100.00
2022-10-28T18:06:03.853Z,100.00
2022-10-28T18:08:39.451Z,100.00
2022-10-28T18:11:07.936Z,100.00
2022-10-28T18:13:39.081Z,100.00
2022-10-28T18:16:06.502Z,100.00
2022-10-28T18:18:37.444Z,100.00
2022-10-28T18:21:11.028Z,100.00
2022-10-28T18:23:37.775Z,100.00
2022-10-28T18:26:04.206Z,100.00
2022-10-28T18:28:32.005Z,100.00
2022-10-28T18:31:07.535Z,100.00
2022-10-28T18:33:35.218Z,100.00
2022-10-28T18:36:04.438Z,100.00
2022-10-28T18:38:31.614Z,100.00
2022-10-28T18:40:58.279Z,100.00
2022-10-28T18:43:24.783Z,100.00
2022-10-28T18:45:51.964Z,100.00
2022-10-28T18:48:18.804Z,100.00
2022-10-28T18:50:56.746Z,100.00
2022-10-28T18:53:23.987Z,100.00
2022-10-28T18:55:50.472Z,100.00
2022-10-28T18:58:17.691Z,100.00
2022-10-28T19:00:44.337Z,100.00
2022-10-28T19:03:19.495Z,100.00
2022-10-28T19:05:46.272Z,100.00
2022-10-28T19:08:12.980Z,100.00
2022-10-28T19:10:39.485Z,100.00
2022-10-28T19:13:06.551Z,100.00
2022-10-28T19:15:33.112Z,100.00
2022-10-28T19:17:59.581Z,100.00
2022-10-28T19:20:26.087Z,100.00
2022-10-28T19:22:52.880Z,100.00
2022-10-28T19:25:19.735Z,100.00
2022-10-28T19:27:46.187Z,100.00
2022-10-28T19:30:13.705Z,100.00
2022-10-28T19:32:40.654Z,100.00
2022-10-28T19:35:07.457Z,100.00
2022-10-28T19:37:35.110Z,100.00
2022-10-28T19:40:01.817Z,100.00
2022-10-28T19:42:28.306Z,100.00
2022-10-28T19:44:55.777Z,100.00
2022-10-28T19:47:22.352Z,100.00
2022-10-28T19:49:48.779Z,100.00
2022-10-28T19:52:15.254Z,100.00
2022-10-28T19:54:41.824Z,100.00
2022-10-28T19:57:08.402Z,100.00
2022-10-28T19:59:34.939Z,100.00
2022-10-28T20:02:01.429Z,100.00
2022-10-28T20:04:27.987Z,100.00
2022-10-28T20:06:54.653Z,100.00
2022-10-28T20:09:25.063Z,100.00
2022-10-28T20:11:54.482Z,100.00
2022-10-28T20:14:21.022Z,100.00
2022-10-28T20:16:48.910Z,100.00
2022-10-28T20:19:15.390Z,100.00
2022-10-28T20:21:41.886Z,100.00
2022-10-28T20:24:08.906Z,100.00
2022-10-28T20:26:37.137Z,100.00
2022-10-28T20:29:06.520Z,100.00
2022-10-28T20:31:33.192Z,100.00
2022-10-28T20:34:03.485Z,100.00
2022-10-28T20:36:38.969Z,100.00
2022-10-28T20:39:12.525Z,100.00
2022-10-28T20:41:40.483Z,100.00
2022-10-28T20:44:07.694Z,100.00
2022-10-28T20:46:34.837Z,100.00
2022-10-28T20:49:01.971Z,100.00
2022-10-28T20:51:31.136Z,100.00
2022-10-28T20:53:58.494Z,100.00
2022-10-28T20:56:30.199Z,100.00
2022-10-28T20:58:57.936Z,100.00
2022-10-28T21:01:29.920Z,100.00
2022-10-28T21:04:00.360Z,100.00
2022-10-28T21:06:28.043Z,100.00
2022-10-28T21:08:55.063Z,100.00
2022-10-28T21:11:23.433Z,100.00
2022-10-28T21:13:52.479Z,100.00
2022-10-28T21:16:20.395Z,100.00
2022-10-28T21:18:47.539Z,100.00
2022-10-28T21:21:14.385Z,100.00
2022-10-28T21:23:41.110Z,100.00
2022-10-28T21:26:08.355Z,100.00
2022-10-28T21:28:35.947Z,100.00
2022-10-28T21:31:10.897Z,100.00
2022-10-28T21:33:38.480Z,100.00
2022-10-28T21:36:08.096Z,100.00
2022-10-28T21:38:35.815Z,100.00
2022-10-28T21:41:08.129Z,100.00
2022-10-28T21:43:36.867Z,100.00
2022-10-28T21:46:03.718Z,100.00
2022-10-28T21:48:31.833Z,100.00
2022-10-28T21:51:02.216Z,100.00
2022-10-28T21:53:32.100Z,100.00
2022-10-28T21:56:04.778Z,100.00
2022-10-28T21:58:31.838Z,100.00
2022-10-28T22:01:10.480Z,100.00
2022-10-28T22:03:37.325Z,100.00
2022-10-28T22:06:04.534Z,100.00
2022-10-28T22:08:31.163Z,100.00
2022-10-28T22:11:09.841Z,100.00
2022-10-28T22:13:36.950Z,100.00
2022-10-28T22:16:06.001Z,100.00
2022-10-28T22:18:35.041Z,100.00
2022-10-28T22:21:13.347Z,100.00
2022-10-28T22:23:40.079Z,100.00
2022-10-28T22:26:09.076Z,100.00
2022-10-28T22:28:35.693Z,100.00
2022-10-28T22:31:05.025Z,100.00
2022-10-28T22:33:31.501Z,100.00
2022-10-28T22:36:04.086Z,100.00
2022-10-28T22:38:30.696Z,100.00
2022-10-28T22:41:03.036Z,100.00
2022-10-28T22:43:29.764Z,100.00
2022-10-28T22:45:58.066Z,100.00
2022-10-28T22:48:24.787Z,100.00
2022-10-28T22:50:51.901Z,100.00
2022-10-28T22:53:18.682Z,100.00
2022-10-28T22:55:46.663Z,100.00
2022-10-28T22:58:13.329Z,100.00
2022-10-28T23:00:39.785Z,100.00
2022-10-28T23:03:06.295Z,100.00
2022-10-28T23:05:32.823Z,100.00
2022-10-28T23:08:01.832Z,100.00
2022-10-28T23:10:28.885Z,100.00
2022-10-28T23:12:56.982Z,100.00
2022-10-28T23:15:24.241Z,100.00
2022-10-28T23:17:51.875Z,100.00
2022-10-28T23:20:23.819Z,100.00
2022-10-28T23:22:50.364Z,100.00
2022-10-28T23:25:17.124Z,100.00
2022-10-28T23:27:44.313Z,100.00
2022-10-28T23:30:12.973Z,100.00
2022-10-28T23:32:39.902Z,100.00
2022-10-28T23:35:07.649Z,100.00
2022-10-28T23:37:34.202Z,100.00
2022-10-28T23:40:00.791Z,100.00
2022-10-28T23:42:27.370Z,100.00
2022-10-28T23:44:53.814Z,100.00
2022-10-28T23:47:20.296Z,100.00
2022-10-28T23:49:46.789Z,100.00
2022-10-28T23:52:13.274Z,100.00
2022-10-28T23:54:39.712Z,100.00
2022-10-28T23:57:06.173Z,100.00
2022-10-28T23:59:32.626Z,100.00
